createdAt,value
2022-11-23T00:02:09.142Z,15.50
2022-11-23T00:06:12.443Z,15.40
2022-11-23T00:10:16.009Z,14.55
2022-11-23T00:14:20.343Z,13.45
2022-11-23T00:18:23.317Z,14.80
2022-11-23T00:22:26.538Z,16.70
2022-11-23T00:26:29.726Z,18.60
2022-11-23T00:30:34.088Z,15.73
2022-11-23T00:34:37.111Z,18.65
2022-11-23T00:38:40.369Z,18.23
2022-11-23T00:42:43.793Z,18.77
2022-11-23T00:46:48.127Z,16.98
2022-11-23T00:50:51.096Z,19.45
2022-11-23T00:54:54.383Z,15.05
2022-11-23T00:58:58.966Z,16.10
2022-11-23T01:03:03.568Z,16.92
2022-11-23T01:07:06.843Z,16.02
2022-11-23T01:11:11.705Z,18.15
2022-11-23T01:15:14.757Z,17.73
2022-11-23T01:19:20.813Z,17.73
2022-11-23T01:23:25.509Z,18.55
2022-11-23T01:27:28.565Z,21.35
2022-11-23T01:31:34.552Z,16.88
2022-11-23T01:35:38.895Z,16.35
2022-11-23T01:39:42.230Z,17.73
2022-11-23T01:43:45.964Z,17.75
2022-11-23T01:47:49.131Z,16.45
2022-11-23T01:51:56.608Z,16.38
2022-11-23T01:56:02.972Z,17.83
2022-11-23T02:00:06.732Z,21.10
2022-11-23T02:04:20.828Z,19.02
2022-11-23T02:08:25.251Z,17.05
2022-11-23T02:12:28.260Z,18.98
2022-11-23T02:16:31.946Z,22.02
2022-11-23T02:20:35.004Z,17.83
2022-11-23T02:24:45.655Z,17.67
2022-11-23T02:28:54.975Z,20.70
2022-11-23T02:32:58.824Z,19.20
2022-11-23T02:37:02.445Z,18.73
2022-11-23T02:41:06.915Z,16.58
2022-11-23T02:45:20.152Z,18.10
2022-11-23T02:49:23.602Z,19.65
2022-11-23T02:53:27.405Z,16.45
2022-11-23T02:57:30.733Z,17.27
2022-11-23T03:01:35.209Z,17.63
2022-11-23T03:05:38.264Z,17.60
2022-11-23T03:09:42.386Z,17.08
2022-11-23T03:13:45.878Z,15.95
2022-11-23T03:17:51.203Z,16.48
2022-11-23T03:21:55.624Z,17.60
2022-11-23T03:25:59.381Z,15.63
2022-11-23T03:30:10.843Z,16.25
2022-11-23T03:34:15.555Z,13.15
2022-11-23T03:38:20.546Z,13.43
2022-11-23T03:42:24.114Z,14.88
2022-11-23T03:46:27.265Z,14.38
2022-11-23T03:50:31.683Z,13.93
2022-11-23T03:54:35.100Z,15.27
2022-11-23T03:58:39.443Z,13.77
2022-11-23T04:02:45.979Z,12.15
2022-11-23T04:07:11.653Z,15.85
2022-11-23T04:11:20.481Z,17.35
2022-11-23T04:15:25.552Z,12.90
2022-11-23T04:19:28.791Z,15.98
2022-11-23T04:23:33.442Z,17.02
2022-11-23T04:27:37.680Z,17.02
2022-11-23T04:31:40.727Z,19.10
2022-11-23T04:35:50.374Z,16.73
2022-11-23T04:39:54.962Z,17.52
2022-11-23T04:44:21.173Z,16.83
2022-11-23T04:48:28.805Z,17.60
2022-11-23T04:52:33.109Z,16.17
2022-11-23T04:56:37.565Z,17.75
2022-11-23T05:00:40.979Z,16.10
2022-11-23T05:04:45.338Z,17.42
2022-11-23T05:08:49.792Z,17.02
2022-11-23T05:13:16.701Z,16.20
2022-11-23T05:17:21.020Z,18.20
2022-11-23T05:21:25.453Z,17.63
2022-11-23T05:25:30.721Z,18.10
2022-11-23T05:29:41.072Z,16.27
2022-11-23T05:33:44.266Z,17.55
2022-11-23T05:37:48.002Z,15.93
2022-11-23T05:41:52.269Z,16.38
2022-11-23T05:46:08.332Z,18.52
2022-11-23T05:50:12.834Z,16.92
2022-11-23T05:54:19.472Z,17.85
2022-11-23T05:58:37.230Z,18.20
2022-11-23T06:02:41.562Z,17.67
2022-11-23T06:06:46.324Z,17.67
2022-11-23T06:10:49.315Z,20.52
2022-11-23T06:14:52.247Z,17.65
2022-11-23T06:18:59.730Z,16.55
2022-11-23T06:23:02.711Z,14.25
2022-11-23T06:27:05.800Z,17.23
2022-11-23T06:31:09.552Z,16.83
2022-11-23T06:35:14.716Z,15.80
2022-11-23T06:39:19.713Z,15.50
2022-11-23T06:43:22.783Z,14.38
2022-11-23T06:47:26.816Z,13.23
2022-11-23T06:51:33.234Z,13.30
2022-11-23T06:55:36.134Z,13.32
2022-11-23T06:59:44.465Z,13.32
2022-11-23T07:03:49.547Z,13.52
2022-11-23T07:08:01.044Z,14.98
2022-11-23T07:12:04.369Z,14.60
2022-11-23T07:16:08.330Z,12.02
2022-11-23T07:20:14.246Z,10.95
2022-11-23T07:24:18.553Z,12.98
2022-11-23T07:28:21.508Z,12.02
2022-11-23T07:32:24.379Z,10.05
2022-11-23T07:36:27.543Z,11.68
2022-11-23T07:40:32.658Z,10.52
2022-11-23T07:44:35.649Z,9.35
2022-11-23T07:48:38.817Z,9.60
2022-11-23T07:52:41.915Z,8.60
2022-11-23T07:56:46.150Z,7.03
2022-11-23T08:00:49.286Z,7.28
2022-11-23T08:04:52.470Z,6.55
2022-11-23T08:08:55.610Z,7.07
2022-11-23T08:13:00.521Z,7.15
2022-11-23T08:17:03.431Z,8.90
2022-11-23T08:21:06.689Z,9.57
2022-11-23T08:25:10.251Z,6.93
2022-11-23T08:29:14.571Z,7.38
2022-11-23T08:33:18.091Z,8.48
2022-11-23T08:37:21.099Z,7.68
2022-11-23T08:41:23.986Z,6.60
2022-11-23T08:45:28.864Z,8.48
2022-11-23T08:49:31.778Z,7.07
2022-11-23T08:53:34.809Z,7.57
2022-11-23T08:57:37.771Z,6.82
2022-11-23T09:01:42.281Z,7.15
2022-11-23T09:05:45.425Z,7.60
2022-11-23T09:09:48.336Z,6.80
2022-11-23T09:13:51.225Z,6.32
2022-11-23T09:17:55.574Z,7.18
2022-11-23T09:21:59.270Z,6.80
2022-11-23T09:26:03.485Z,7.28
2022-11-23T09:30:07.469Z,6.35
2022-11-23T09:34:13.853Z,7.82
2022-11-23T09:38:16.985Z,7.03
2022-11-23T09:42:44.616Z,6.85
2022-11-23T09:47:04.688Z,7.15
2022-11-23T09:51:17.035Z,7.45
2022-11-23T09:55:26.023Z,6.65
2022-11-23T09:59:50.883Z,7.32
2022-11-23T10:03:54.194Z,4.30
2022-11-23T10:08:07.542Z,5.75
2022-11-23T10:12:39.835Z,5.60
2022-11-23T10:16:52.710Z,6.38
2022-11-23T10:21:05.380Z,4.82
2022-11-23T10:25:21.958Z,4.68
2022-11-23T10:29:31.344Z,4.50
2022-11-23T10:33:42.682Z,4.72
2022-11-23T10:37:45.693Z,4.63
2022-11-23T10:41:50.968Z,4.05
2022-11-23T10:46:31.043Z,4.57
2022-11-23T10:50:37.567Z,4.15
2022-11-23T10:54:54.483Z,3.33
2022-11-23T10:58:59.119Z,4.18
2022-11-23T11:03:03.384Z,5.05
2022-11-23T11:07:22.537Z,3.38
2022-11-23T11:11:30.352Z,4.13
2022-11-23T11:15:42.439Z,3.72
2022-11-23T11:19:50.295Z,2.33
2022-11-23T11:23:55.406Z,2.85
2022-11-23T11:27:59.821Z,2.70
2022-11-23T11:32:10.832Z,4.20
2022-11-23T11:36:17.452Z,2.83
2022-11-23T11:40:27.851Z,4.30
2022-11-23T11:44:37.335Z,1.90
2022-11-23T11:48:46.590Z,3.97
2022-11-23T11:52:53.970Z,2.97
2022-11-23T11:57:03.212Z,3.03
2022-11-23T12:01:17.339Z,3.08
2022-11-23T12:05:25.886Z,3.70
2022-11-23T12:09:33.927Z,3.72
2022-11-23T12:13:39.841Z,2.65
2022-11-23T12:18:05.593Z,4.28
2022-11-23T12:22:38.597Z,2.70
2022-11-23T12:26:51.799Z,2.13
2022-11-23T12:31:07.382Z,2.33
2022-11-23T12:35:32.186Z,2.90
2022-11-23T12:40:16.385Z,2.92
2022-11-23T12:44:57.472Z,3.72
2022-11-23T12:49:15.667Z,3.22
2022-11-23T12:53:32.715Z,3.97
2022-11-23T12:57:39.755Z,2.90
2022-11-23T13:01:49.920Z,2.70
2022-11-23T13:06:14.507Z,6.38
2022-11-23T13:10:28.696Z,2.63
2022-11-23T13:14:40.436Z,3.22
2022-11-23T13:19:01.551Z,3.50
2022-11-23T13:23:08.033Z,3.25
2022-11-23T13:27:42.916Z,2.42
2022-11-23T13:31:45.863Z,2.10
2022-11-23T13:36:08.704Z,2.30
2022-11-23T13:40:23.232Z,2.33
2022-11-23T13:44:29.410Z,2.60
2022-11-23T13:48:55.445Z,2.28
2022-11-23T13:52:56.911Z,2.45
2022-11-23T13:57:03.409Z,1.98
2022-11-23T14:01:06.751Z,2.47
2022-11-23T14:05:55.096Z,2.47
2022-11-23T14:10:09.603Z,2.90
2022-11-23T14:14:19.945Z,2.20
2022-11-23T14:18:55.073Z,2.28
2022-11-23T14:23:29.490Z,1.92
2022-11-23T14:27:47.890Z,2.70
2022-11-23T14:32:09.962Z,3.08
2022-11-23T14:36:22.468Z,2.63
2022-11-23T14:40:29.063Z,3.58
2022-11-23T14:44:38.624Z,2.95
2022-11-23T14:48:42.071Z,3.08
2022-11-23T14:52:46.426Z,4.10
2022-11-23T14:56:52.170Z,2.67
2022-11-23T15:01:00.210Z,3.00
2022-11-23T15:05:09.998Z,3.30
2022-11-23T15:09:24.201Z,3.95
2022-11-23T15:13:30.769Z,3.53
2022-11-23T15:17:35.588Z,3.53
2022-11-23T15:21:38.608Z,2.88
2022-11-23T15:25:52.033Z,6.20
2022-11-23T15:29:57.259Z,2.83
2022-11-23T15:34:05.001Z,3.88
2022-11-23T15:38:17.722Z,3.67
2022-11-23T15:42:25.787Z,3.33
2022-11-23T15:46:35.118Z,3.17
2022-11-23T15:50:48.029Z,2.95
2022-11-23T15:54:51.190Z,5.10
2022-11-23T15:58:54.954Z,3.25
2022-11-23T16:03:22.505Z,4.18
2022-11-23T16:07:27.865Z,7.10
2022-11-23T16:11:33.429Z,4.03
2022-11-23T16:15:42.257Z,3.03
2022-11-23T16:19:48.557Z,4.78
2022-11-23T16:23:55.406Z,4.00
2022-11-23T16:27:59.674Z,4.38
2022-11-23T16:32:06.936Z,4.97
2022-11-23T16:36:10.325Z,4.55
2022-11-23T16:40:15.325Z,4.10
2022-11-23T16:44:18.497Z,4.75
2022-11-23T16:48:40.479Z,4.53
2022-11-23T16:52:44.292Z,4.15
2022-11-23T16:56:48.560Z,4.93
2022-11-23T17:00:51.498Z,5.60
2022-11-23T17:04:54.682Z,4.65
2022-11-23T17:09:06.216Z,4.38
2022-11-23T17:13:20.300Z,3.80
2022-11-23T17:17:24.003Z,5.07
2022-11-23T17:21:26.890Z,5.43
2022-11-23T17:25:30.507Z,4.32
2022-11-23T17:29:40.300Z,4.72
2022-11-23T17:33:44.721Z,4.90
2022-11-23T17:37:48.609Z,7.10
2022-11-23T17:41:51.717Z,5.78
2022-11-23T17:45:56.579Z,6.50
2022-11-23T17:49:59.784Z,6.30
2022-11-23T17:54:02.734Z,5.38
2022-11-23T17:58:06.219Z,4.90
2022-11-23T18:02:11.529Z,5.50
2022-11-23T18:06:15.849Z,4.90
2022-11-23T18:10:19.054Z,5.50
2022-11-23T18:14:23.977Z,5.50
2022-11-23T18:18:28.270Z,4.88
2022-11-23T18:22:31.208Z,8.23
2022-11-23T18:26:34.260Z,5.18
2022-11-23T18:30:37.424Z,6.57
2022-11-23T18:34:41.770Z,7.40
2022-11-23T18:38:45.890Z,7.70
2022-11-23T18:42:48.801Z,7.25
2022-11-23T18:46:52.282Z,6.57
2022-11-23T18:50:56.625Z,5.93
2022-11-23T18:55:00.561Z,7.45
2022-11-23T18:59:03.726Z,6.80
2022-11-23T19:03:06.672Z,6.55
2022-11-23T19:07:11.010Z,6.93
2022-11-23T19:11:17.559Z,7.20
2022-11-23T19:15:20.726Z,9.07
2022-11-23T19:19:23.723Z,8.85
2022-11-23T19:23:29.805Z,7.40
2022-11-23T19:27:36.926Z,7.20
2022-11-23T19:31:39.905Z,7.82
2022-11-23T19:35:42.902Z,6.47
2022-11-23T19:39:47.336Z,6.20
2022-11-23T19:43:53.725Z,7.18
2022-11-23T19:47:56.639Z,7.57
2022-11-23T19:51:59.606Z,8.05
2022-11-23T19:56:05.063Z,8.93
2022-11-23T20:00:09.622Z,8.52
2022-11-23T20:04:15.004Z,7.43
2022-11-23T20:08:18.044Z,8.48
2022-11-23T20:12:22.272Z,7.68
2022-11-23T20:16:27.370Z,7.38
2022-11-23T20:20:32.013Z,7.78
2022-11-23T20:24:36.287Z,10.60
2022-11-23T20:28:40.779Z,9.00
2022-11-23T20:32:43.664Z,8.25
2022-11-23T20:36:46.797Z,7.53
2022-11-23T20:40:50.542Z,8.73
2022-11-23T20:44:54.844Z,9.63
2022-11-23T20:48:58.445Z,8.35
2022-11-23T20:53:04.314Z,10.45
2022-11-23T20:57:07.672Z,7.13
2022-11-23T21:01:14.476Z,9.07
2022-11-23T21:05:18.840Z,7.90
2022-11-23T21:09:21.800Z,12.60
2022-11-23T21:13:49.546Z,10.23
2022-11-23T21:17:54.393Z,8.05
2022-11-23T21:21:58.936Z,9.10
2022-11-23T21:26:05.051Z,11.35
2022-11-23T21:30:09.693Z,10.88
2022-11-23T21:34:18.975Z,11.32
2022-11-23T21:38:23.557Z,11.25
2022-11-23T21:42:26.427Z,11.52
2022-11-23T21:46:29.566Z,11.63
2022-11-23T21:50:34.006Z,12.75
2022-11-23T21:54:36.946Z,8.73
2022-11-23T21:58:40.417Z,9.98
2022-11-23T22:02:43.475Z,9.57
2022-11-23T22:06:47.964Z,12.60
2022-11-23T22:10:51.018Z,12.25
2022-11-23T22:14:53.942Z,11.13
2022-11-23T22:18:57.358Z,9.50
2022-11-23T22:23:01.702Z,10.35
2022-11-23T22:27:04.777Z,11.40
2022-11-23T22:31:09.522Z,10.55
2022-11-23T22:35:12.803Z,9.23
2022-11-23T22:39:17.170Z,11.77
2022-11-23T22:43:20.199Z,10.80
2022-11-23T22:47:23.327Z,11.27
2022-11-23T22:51:28.687Z,11.35
2022-11-23T22:55:33.308Z,8.43
2022-11-23T22:59:36.512Z,10.35
2022-11-23T23:03:39.772Z,11.02
2022-11-23T23:07:43.146Z,10.82
2022-11-23T23:11:47.624Z,9.88
2022-11-23T23:16:00.463Z,11.85
2022-11-23T23:20:03.765Z,11.35
2022-11-23T23:24:07.276Z,8.45
2022-11-23T23:28:12.108Z,11.57
2022-11-23T23:32:15.107Z,10.23
2022-11-23T23:36:19.441Z,10.38
2022-11-23T23:40:22.538Z,7.63
2022-11-23T23:44:26.865Z,7.85
2022-11-23T23:48:30.792Z,7.93
2022-11-23T23:52:33.845Z,10.60
2022-11-23T23:56:36.784Z,8.75
